createdAt,value
2018-04-26T00:00:32.314Z,0
2018-04-26T00:01:40.949Z,0
2018-04-26T00:02:49.592Z,0
2018-04-26T00:03:58.223Z,0
2018-04-26T00:05:06.874Z,0
2018-04-26T00:06:15.522Z,0
2018-04-26T00:07:24.154Z,0
2018-04-26T00:08:32.794Z,0
2018-04-26T00:09:41.450Z,0
2018-04-26T00:10:50.079Z,0
2018-04-26T00:11:58.721Z,0
2018-04-26T00:13:07.370Z,0
2018-04-26T00:14:16.007Z,0
2018-04-26T00:15:24.902Z,0
2018-04-26T00:16:33.553Z,0
2018-04-26T00:17:42.194Z,0
2018-04-26T00:18:50.846Z,0
2018-04-26T00:19:59.477Z,0
2018-04-26T00:21:08.118Z,0
2018-04-26T00:22:16.772Z,0
2018-04-26T00:23:25.678Z,0
2018-04-26T00:24:34.313Z,0
2018-04-26T00:25:42.965Z,0
2018-04-26T00:26:51.606Z,0
2018-04-26T00:28:00.233Z,0
2018-04-26T00:29:09.160Z,0
2018-04-26T00:30:17.803Z,0
2018-04-26T00:31:26.718Z,0
2018-04-26T00:32:35.353Z,0
2018-04-26T00:33:43.989Z,0
2018-04-26T00:34:52.639Z,0
2018-04-26T00:36:01.280Z,0
2018-04-26T00:37:09.917Z,0
2018-04-26T00:38:18.843Z,0
2018-04-26T00:39:27.486Z,0
2018-04-26T00:40:36.117Z,0
2018-04-26T00:41:44.771Z,0
2018-04-26T00:42:53.417Z,0
2018-04-26T00:44:02.049Z,0
2018-04-26T00:45:10.692Z,0
2018-04-26T00:46:19.328Z,0
2018-04-26T00:47:27.983Z,0
2018-04-26T00:48:36.624Z,0
2018-04-26T00:49:45.258Z,0
2018-04-26T00:50:53.905Z,0
2018-04-26T00:52:02.554Z,0
2018-04-26T00:53:11.187Z,0
2018-04-26T00:54:19.828Z,0
2018-04-26T00:55:28.482Z,0
2018-04-26T00:56:37.116Z,0
2018-04-26T00:57:45.752Z,0
2018-04-26T00:58:54.407Z,0
2018-04-26T01:00:03.308Z,0
2018-04-26T01:01:11.956Z,0
2018-04-26T01:02:20.847Z,0
2018-04-26T01:03:29.539Z,0
2018-04-26T01:04:38.146Z,0
2018-04-26T01:05:47.039Z,0
2018-04-26T01:06:55.679Z,0
2018-04-26T01:08:04.331Z,0
2018-04-26T01:09:12.968Z,0
2018-04-26T01:10:21.601Z,0
2018-04-26T01:11:30.263Z,0
2018-04-26T01:12:38.902Z,0
2018-04-26T01:13:47.534Z,0
2018-04-26T01:14:56.182Z,0
2018-04-26T01:16:04.823Z,0
2018-04-26T01:17:13.740Z,0
2018-04-26T01:18:22.634Z,0
2018-04-26T01:19:31.269Z,0
2018-04-26T01:20:39.920Z,0
2018-04-26T01:21:48.561Z,0
2018-04-26T01:22:57.191Z,0
2018-04-26T01:24:05.869Z,0
2018-04-26T01:25:14.492Z,0
2018-04-26T01:26:23.389Z,0
2018-04-26T01:27:32.297Z,0
2018-04-26T01:28:40.947Z,0
2018-04-26T01:29:49.584Z,0
2018-04-26T01:30:58.230Z,0
2018-04-26T01:32:06.858Z,0
2018-04-26T01:33:15.520Z,0
2018-04-26T01:34:24.162Z,0
2018-04-26T01:35:33.059Z,0
2018-04-26T01:36:41.710Z,0
2018-04-26T01:37:50.620Z,0
2018-04-26T01:38:59.252Z,0
2018-04-26T01:40:07.893Z,0
2018-04-26T01:41:16.549Z,0
2018-04-26T01:42:25.183Z,0
2018-04-26T01:43:33.831Z,0
2018-04-26T01:44:42.482Z,0
2018-04-26T01:45:51.374Z,0
2018-04-26T01:47:00.014Z,0
2018-04-26T01:48:08.670Z,0
2018-04-26T01:49:17.305Z,0
2018-04-26T01:50:26.213Z,0
2018-04-26T01:51:34.865Z,0
2018-04-26T01:52:43.512Z,0
2018-04-26T01:53:52.142Z,0
2018-04-26T01:55:00.799Z,0
2018-04-26T01:56:09.449Z,0
2018-04-26T01:57:18.081Z,0
2018-04-26T01:58:26.722Z,0
2018-04-26T01:59:35.360Z,0
2018-04-26T02:00:44.283Z,0
2018-04-26T02:01:52.927Z,0
2018-04-26T02:03:01.557Z,0
2018-04-26T02:04:10.209Z,0
2018-04-26T02:05:19.120Z,0
2018-04-26T02:06:28.009Z,0
2018-04-26T02:07:36.651Z,0
2018-04-26T02:08:45.305Z,0
2018-04-26T02:09:53.935Z,0
2018-04-26T02:11:02.577Z,0
2018-04-26T02:12:11.230Z,0
2018-04-26T02:13:19.947Z,0
2018-04-26T02:14:28.510Z,0
2018-04-26T02:15:37.410Z,0
2018-04-26T02:16:46.056Z,0
2018-04-26T02:17:54.973Z,0
2018-04-26T02:19:03.606Z,0
2018-04-26T02:20:12.514Z,0
2018-04-26T02:21:21.170Z,0
2018-04-26T02:22:29.802Z,0
2018-04-26T02:23:38.441Z,0
2018-04-26T02:24:47.091Z,0
2018-04-26T02:25:56.262Z,0
2018-04-26T02:27:04.891Z,0
2018-04-26T02:28:13.539Z,0
2018-04-26T02:29:22.174Z,0
2018-04-26T02:30:30.826Z,0
2018-04-26T02:31:39.482Z,0
2018-04-26T02:32:48.668Z,0
2018-04-26T02:33:57.589Z,0
2018-04-26T02:35:06.499Z,0
2018-04-26T02:36:15.134Z,0
2018-04-26T02:37:23.785Z,0
2018-04-26T02:38:32.432Z,0
2018-04-26T02:39:41.335Z,0
2018-04-26T02:40:49.983Z,0
2018-04-26T02:41:58.631Z,0
2018-04-26T02:43:07.552Z,0
2018-04-26T02:44:16.225Z,0
2018-04-26T02:45:24.829Z,0
2018-04-26T02:46:33.755Z,0
2018-04-26T02:47:42.397Z,0
2018-04-26T02:48:51.037Z,0
2018-04-26T02:49:59.694Z,0
2018-04-26T02:51:08.342Z,0
2018-04-26T02:52:16.974Z,0
2018-04-26T02:53:25.615Z,0
2018-04-26T02:54:34.279Z,0
2018-04-26T02:55:42.916Z,0
2018-04-26T02:56:51.829Z,0
2018-04-26T02:58:00.734Z,0
2018-04-26T02:59:09.660Z,0
2018-04-26T03:00:18.309Z,0
2018-04-26T03:01:26.955Z,0
2018-04-26T03:02:35.599Z,0
2018-04-26T03:03:44.257Z,0
2018-04-26T03:04:53.418Z,0
2018-04-26T03:06:02.325Z,0
2018-04-26T03:07:10.974Z,0
2018-04-26T03:08:20.276Z,0
2018-04-26T03:09:28.922Z,0
2018-04-26T03:10:37.563Z,0
2018-04-26T03:11:46.205Z,0
2018-04-26T03:12:55.128Z,0
2018-04-26T03:14:04.026Z,0
2018-04-26T03:15:12.667Z,0
2018-04-26T03:16:21.320Z,0
2018-04-26T03:17:29.954Z,0
2018-04-26T03:18:38.592Z,0
2018-04-26T03:19:47.245Z,0
2018-04-26T03:20:56.154Z,0
2018-04-26T03:22:04.786Z,0
2018-04-26T03:23:13.439Z,0
2018-04-26T03:24:22.080Z,0
2018-04-26T03:25:30.711Z,0
2018-04-26T03:26:39.362Z,0
2018-04-26T03:27:47.994Z,0
2018-04-26T03:28:56.647Z,0
2018-04-26T03:30:05.817Z,0
2018-04-26T03:31:14.615Z,0
2018-04-26T03:32:23.115Z,0
2018-04-26T03:33:31.762Z,0
2018-04-26T03:34:40.390Z,0
2018-04-26T03:35:49.043Z,0
2018-04-26T03:36:57.688Z,0
2018-04-26T03:38:06.321Z,0
2018-04-26T03:39:14.964Z,0
2018-04-26T03:40:23.888Z,0
2018-04-26T03:41:32.520Z,0
2018-04-26T03:42:41.162Z,0
2018-04-26T03:43:49.810Z,0
2018-04-26T03:44:58.446Z,0
2018-04-26T03:46:07.079Z,0
2018-04-26T03:47:15.729Z,0
2018-04-26T03:48:24.367Z,0
2018-04-26T03:49:32.999Z,4
2018-04-26T03:50:41.652Z,4
2018-04-26T03:51:50.297Z,0
2018-04-26T03:52:59.193Z,0
2018-04-26T03:54:07.844Z,4
2018-04-26T03:55:16.490Z,0
2018-04-26T03:56:25.131Z,0
2018-04-26T03:57:33.767Z,0
2018-04-26T03:58:42.402Z,4
2018-04-26T03:59:51.054Z,0
2018-04-26T04:00:59.704Z,4
2018-04-26T04:02:08.335Z,0
2018-04-26T04:03:16.981Z,0
2018-04-26T04:04:25.628Z,4
2018-04-26T04:05:34.259Z,4
2018-04-26T04:06:42.905Z,4
2018-04-26T04:07:51.825Z,8
2018-04-26T04:09:00.458Z,4
2018-04-26T04:10:09.360Z,4
2018-04-26T04:11:18.266Z,4
2018-04-26T04:12:26.912Z,8
2018-04-26T04:13:35.567Z,4
2018-04-26T04:14:44.188Z,8
2018-04-26T04:15:52.840Z,8
2018-04-26T04:17:01.754Z,12
2018-04-26T04:18:10.383Z,16
2018-04-26T04:19:19.020Z,16
2018-04-26T04:20:27.673Z,16
2018-04-26T04:21:36.306Z,20
2018-04-26T04:22:44.940Z,20
2018-04-26T04:23:53.587Z,24
2018-04-26T04:25:02.225Z,28
2018-04-26T04:26:10.874Z,32
2018-04-26T04:27:19.501Z,40
2018-04-26T04:28:28.141Z,48
2018-04-26T04:29:36.789Z,52
2018-04-26T04:30:45.427Z,60
2018-04-26T04:31:54.057Z,68
2018-04-26T04:33:02.711Z,76
2018-04-26T04:34:11.347Z,84
2018-04-26T04:35:20.038Z,104
2018-04-26T04:36:28.628Z,108
2018-04-26T04:37:37.271Z,96
2018-04-26T04:38:45.901Z,76
2018-04-26T04:39:54.545Z,76
2018-04-26T04:41:03.180Z,80
2018-04-26T04:42:12.115Z,80
2018-04-26T04:43:20.750Z,80
2018-04-26T04:44:29.382Z,100
2018-04-26T04:45:38.032Z,116
2018-04-26T04:46:46.677Z,112
2018-04-26T04:47:55.304Z,120
2018-04-26T04:49:03.953Z,144
2018-04-26T04:50:12.599Z,128
2018-04-26T04:51:21.229Z,92
2018-04-26T04:52:29.869Z,100
2018-04-26T04:53:38.518Z,140
2018-04-26T04:54:47.153Z,140
2018-04-26T04:55:55.797Z,140
2018-04-26T04:57:04.427Z,172
2018-04-26T04:58:13.073Z,196
2018-04-26T04:59:21.719Z,248
2018-04-26T05:00:30.351Z,260
2018-04-26T05:01:38.998Z,188
2018-04-26T05:02:47.644Z,160
2018-04-26T05:03:56.276Z,208
2018-04-26T05:05:04.913Z,292
2018-04-26T05:06:13.834Z,364
2018-04-26T05:07:22.531Z,432
2018-04-26T05:08:31.473Z,500
2018-04-26T05:09:40.114Z,712
2018-04-26T05:10:48.757Z,736
2018-04-26T05:11:57.409Z,660
2018-04-26T05:13:06.301Z,668
2018-04-26T05:14:14.937Z,808
2018-04-26T05:15:23.854Z,744
2018-04-26T05:16:32.496Z,708
2018-04-26T05:17:41.124Z,852
2018-04-26T05:18:50.041Z,1048
2018-04-26T05:19:58.678Z,1220
2018-04-26T05:21:07.579Z,1468
2018-04-26T05:22:16.501Z,1704
2018-04-26T05:23:25.425Z,2032
2018-04-26T05:24:34.332Z,2308
2018-04-26T05:25:42.981Z,1940
2018-04-26T05:26:51.601Z,1620
2018-04-26T05:28:00.531Z,1628
2018-04-26T05:29:09.166Z,1764
2018-04-26T05:30:17.798Z,1636
2018-04-26T05:31:26.448Z,1280
2018-04-26T05:32:35.094Z,1416
2018-04-26T05:33:43.742Z,1580
2018-04-26T05:34:52.367Z,1780
2018-04-26T05:36:01.012Z,2060
2018-04-26T05:37:09.643Z,2212
2018-04-26T05:38:18.288Z,2228
2018-04-26T05:39:26.940Z,2096
2018-04-26T05:40:35.894Z,1944
2018-04-26T05:41:44.473Z,1788
2018-04-26T05:42:53.121Z,1656
2018-04-26T05:44:01.762Z,1668
2018-04-26T05:45:10.393Z,1652
2018-04-26T05:46:19.048Z,1600
2018-04-26T05:47:27.793Z,1516
2018-04-26T05:48:36.765Z,1480
2018-04-26T05:49:45.682Z,1720
2018-04-26T05:50:54.792Z,2064
2018-04-26T05:52:03.417Z,2188
2018-04-26T05:53:12.067Z,2060
2018-04-26T05:54:20.696Z,1752
2018-04-26T05:55:29.611Z,1520
2018-04-26T05:56:38.253Z,1648
2018-04-26T05:57:47.146Z,1972
2018-04-26T05:58:56.074Z,2112
2018-04-26T06:00:04.717Z,2172
2018-04-26T06:01:13.613Z,2084
2018-04-26T06:02:22.259Z,2072
2018-04-26T06:03:30.935Z,2256
2018-04-26T06:04:39.821Z,2560
2018-04-26T06:05:49.017Z,2720
2018-04-26T06:06:57.675Z,2764
2018-04-26T06:08:06.311Z,2768
2018-04-26T06:09:14.952Z,2876
2018-04-26T06:10:23.582Z,3116
2018-04-26T06:11:32.232Z,3332
2018-04-26T06:12:40.879Z,3292
2018-04-26T06:13:49.511Z,3216
2018-04-26T06:14:58.155Z,3156
2018-04-26T06:16:07.354Z,3124
2018-04-26T06:17:16.018Z,3016
2018-04-26T06:18:24.913Z,2872
2018-04-26T06:19:33.563Z,2696
2018-04-26T06:20:42.203Z,2708
2018-04-26T06:21:50.842Z,2956
2018-04-26T06:22:59.758Z,3104
2018-04-26T06:24:08.400Z,3388
2018-04-26T06:25:17.063Z,3348
2018-04-26T06:26:25.962Z,3284
2018-04-26T06:27:34.875Z,3316
2018-04-26T06:28:43.528Z,3516
2018-04-26T06:29:52.163Z,3732
2018-04-26T06:31:00.882Z,3676
2018-04-26T06:32:09.455Z,4076
2018-04-26T06:33:18.105Z,3856
2018-04-26T06:34:26.996Z,3124
2018-04-26T06:35:35.652Z,3368
2018-04-26T06:36:44.297Z,3192
2018-04-26T06:37:52.929Z,3180
2018-04-26T06:39:01.580Z,2892
2018-04-26T06:40:10.231Z,3608
2018-04-26T06:41:18.870Z,3724
2018-04-26T06:42:27.587Z,3588
2018-04-26T06:43:36.159Z,3164
2018-04-26T06:44:44.791Z,2960
2018-04-26T06:45:53.428Z,2628
2018-04-26T06:47:02.082Z,2496
2018-04-26T06:48:10.720Z,2548
2018-04-26T06:49:19.360Z,3016
2018-04-26T06:50:28.017Z,3696
2018-04-26T06:51:36.661Z,4744
2018-04-26T06:52:45.312Z,4492
2018-04-26T06:53:53.948Z,3756
2018-04-26T06:55:02.583Z,3148
2018-04-26T06:56:11.234Z,2780
2018-04-26T06:57:19.880Z,3352
2018-04-26T06:58:28.507Z,3352
2018-04-26T06:59:37.160Z,3424
2018-04-26T07:00:46.071Z,2896
2018-04-26T07:01:54.703Z,3152
2018-04-26T07:03:03.618Z,2768
2018-04-26T07:04:12.264Z,2544
2018-04-26T07:05:20.895Z,3208
2018-04-26T07:06:29.541Z,3656
2018-04-26T07:07:38.177Z,4200
2018-04-26T07:08:46.831Z,3376
2018-04-26T07:09:55.476Z,2668
2018-04-26T07:11:04.382Z,2540
2018-04-26T07:12:13.039Z,2572
2018-04-26T07:13:21.684Z,3148
2018-04-26T07:14:30.317Z,3084
2018-04-26T07:15:38.965Z,3564
2018-04-26T07:16:47.615Z,3588
2018-04-26T07:17:56.246Z,4324
2018-04-26T07:19:04.894Z,4608
2018-04-26T07:20:13.548Z,4308
2018-04-26T07:21:22.185Z,4072
2018-04-26T07:22:30.830Z,4548
2018-04-26T07:23:39.462Z,4776
2018-04-26T07:24:48.119Z,4852
2018-04-26T07:25:57.030Z,4364
2018-04-26T07:27:05.666Z,4308
2018-04-26T07:28:14.307Z,3556
2018-04-26T07:29:22.969Z,3580
2018-04-26T07:30:31.596Z,3888
2018-04-26T07:31:40.241Z,4312
2018-04-26T07:32:48.898Z,4424
2018-04-26T07:33:57.843Z,4804
2018-04-26T07:35:06.903Z,4276
2018-04-26T07:36:15.881Z,5264
2018-04-26T07:37:24.566Z,4340
2018-04-26T07:38:33.438Z,3576
2018-04-26T07:39:42.625Z,4744
2018-04-26T07:40:51.267Z,3376
2018-04-26T07:42:00.443Z,3608
2018-04-26T07:43:09.287Z,4072
2018-04-26T07:44:18.078Z,3336
2018-04-26T07:45:26.863Z,3644
2018-04-26T07:46:35.506Z,4860
2018-04-26T07:47:44.161Z,3448
2018-04-26T07:48:52.792Z,2576
2018-04-26T07:50:01.435Z,3744
2018-04-26T07:51:10.076Z,4724
2018-04-26T07:52:18.729Z,5028
2018-04-26T07:53:27.377Z,4820
2018-04-26T07:54:36.021Z,3572
2018-04-26T07:55:45.205Z,3816
2018-04-26T07:56:53.860Z,4640
2018-04-26T07:58:02.492Z,4376
2018-04-26T07:59:11.136Z,5112
2018-04-26T08:00:19.789Z,4040
2018-04-26T08:01:28.526Z,3564
2018-04-26T08:02:37.377Z,2728
2018-04-26T08:03:46.032Z,2196
2018-04-26T08:04:54.937Z,3012
2018-04-26T08:06:03.645Z,4344
2018-04-26T08:07:12.279Z,4660
2018-04-26T08:08:20.915Z,5680
2018-04-26T08:09:29.577Z,4564
2018-04-26T08:10:38.476Z,4156
2018-04-26T08:11:47.159Z,5316
2018-04-26T08:12:55.792Z,4412
2018-04-26T08:14:04.426Z,5472
2018-04-26T08:15:13.330Z,5708
2018-04-26T08:16:22.208Z,5804
2018-04-26T08:17:31.134Z,4424
2018-04-26T08:18:39.766Z,4724
2018-04-26T08:19:48.420Z,4488
2018-04-26T08:20:57.057Z,5756
2018-04-26T08:22:05.713Z,3424
2018-04-26T08:23:14.355Z,2988
2018-04-26T08:24:23.254Z,4372
2018-04-26T08:25:31.903Z,4260
2018-04-26T08:26:40.848Z,3948
2018-04-26T08:27:49.734Z,3876
2018-04-26T08:28:58.388Z,4144
2018-04-26T08:30:07.576Z,4380
2018-04-26T08:31:16.214Z,5364
2018-04-26T08:32:24.859Z,6000
2018-04-26T08:33:33.515Z,4312
2018-04-26T08:34:42.155Z,2884
2018-04-26T08:35:50.803Z,4184
2018-04-26T08:36:59.437Z,4844
2018-04-26T08:38:08.090Z,5540
2018-04-26T08:39:16.739Z,6072
2018-04-26T08:40:25.372Z,6572
2018-04-26T08:41:34.017Z,4524
2018-04-26T08:42:42.674Z,3012
2018-04-26T08:43:51.572Z,3444
2018-04-26T08:45:00.218Z,3040
2018-04-26T08:46:08.872Z,4284
2018-04-26T08:47:17.514Z,4128
2018-04-26T08:48:26.150Z,4092
2018-04-26T08:49:34.801Z,4600
2018-04-26T08:50:43.716Z,5104
2018-04-26T08:51:52.379Z,5152
2018-04-26T08:53:01.006Z,5444
2018-04-26T08:54:09.915Z,4800
2018-04-26T08:55:18.571Z,4064
2018-04-26T08:56:27.484Z,4448
2018-04-26T08:57:36.394Z,4656
2018-04-26T08:58:45.048Z,4836
2018-04-26T08:59:53.694Z,4688
2018-04-26T09:01:02.324Z,4484
2018-04-26T09:02:10.981Z,5028
2018-04-26T09:03:19.624Z,4912
2018-04-26T09:04:28.278Z,3480
2018-04-26T09:05:37.174Z,4484
2018-04-26T09:06:45.865Z,3496
2018-04-26T09:07:54.468Z,4712
2018-04-26T09:09:03.114Z,4764
2018-04-26T09:10:11.746Z,4056
2018-04-26T09:11:20.679Z,4356
2018-04-26T09:12:29.314Z,5040
2018-04-26T09:13:37.949Z,5408
2018-04-26T09:14:46.608Z,5012
2018-04-26T09:15:55.298Z,6260
2018-04-26T09:17:03.886Z,3380
2018-04-26T09:18:12.533Z,2400
2018-04-26T09:19:21.174Z,2004
2018-04-26T09:20:29.834Z,2852
2018-04-26T09:21:38.485Z,3812
2018-04-26T09:22:47.114Z,3352
2018-04-26T09:23:55.771Z,2508
2018-04-26T09:25:04.419Z,1400
2018-04-26T09:26:13.055Z,1392
2018-04-26T09:27:21.967Z,1820
2018-04-26T09:28:30.622Z,2236
2018-04-26T09:29:39.256Z,2388
2018-04-26T09:30:47.902Z,2460
2018-04-26T09:31:56.558Z,3656
2018-04-26T09:33:05.192Z,2684
2018-04-26T09:34:13.831Z,4496
2018-04-26T09:35:22.757Z,3324
2018-04-26T09:36:31.398Z,3328
2018-04-26T09:37:40.036Z,3520
2018-04-26T09:38:48.749Z,3732
2018-04-26T09:39:57.340Z,4360
2018-04-26T09:41:06.234Z,4744
2018-04-26T09:42:14.885Z,4060
2018-04-26T09:43:23.533Z,3536
2018-04-26T09:44:32.169Z,3316
2018-04-26T09:45:40.812Z,3548
2018-04-26T09:46:49.466Z,3784
2018-04-26T09:47:58.105Z,4104
2018-04-26T09:49:07.019Z,4324
2018-04-26T09:50:15.917Z,4868
2018-04-26T09:51:24.566Z,5036
2018-04-26T09:52:33.212Z,3280
2018-04-26T09:53:41.847Z,3816
2018-04-26T09:54:50.496Z,3648
2018-04-26T09:55:59.150Z,4056
2018-04-26T09:57:07.795Z,5184
2018-04-26T09:58:16.436Z,4592
2018-04-26T09:59:25.094Z,4364
2018-04-26T10:00:33.997Z,5284
2018-04-26T10:01:42.678Z,5684
2018-04-26T10:02:51.284Z,5268
2018-04-26T10:04:00.203Z,6284
2018-04-26T10:05:08.862Z,7412
2018-04-26T10:06:17.495Z,5620
2018-04-26T10:07:26.136Z,5284
2018-04-26T10:08:35.063Z,6744
2018-04-26T10:09:43.703Z,7372
2018-04-26T10:10:52.350Z,8540
2018-04-26T10:12:01.269Z,8880
2018-04-26T10:13:09.910Z,7112
2018-04-26T10:14:18.548Z,6988
2018-04-26T10:15:27.465Z,7332
2018-04-26T10:16:36.116Z,7320
2018-04-26T10:17:44.766Z,7160
2018-04-26T10:18:53.409Z,6264
2018-04-26T10:20:02.048Z,4624
2018-04-26T10:21:10.711Z,3988
2018-04-26T10:22:19.349Z,3752
2018-04-26T10:23:28.253Z,4924
2018-04-26T10:24:37.169Z,5392
2018-04-26T10:25:46.089Z,5500
2018-04-26T10:26:54.728Z,7092
2018-04-26T10:28:03.379Z,6696
2018-04-26T10:29:12.033Z,6672
2018-04-26T10:30:20.669Z,7428
2018-04-26T10:31:29.322Z,8284
2018-04-26T10:32:38.222Z,8612
2018-04-26T10:33:46.876Z,8632
2018-04-26T10:34:55.534Z,8296
2018-04-26T10:36:04.168Z,7928
2018-04-26T10:37:12.822Z,7108
2018-04-26T10:38:21.473Z,5636
2018-04-26T10:39:30.393Z,5200
2018-04-26T10:40:39.041Z,5520
2018-04-26T10:41:47.699Z,6012
2018-04-26T10:42:56.340Z,7924
2018-04-26T10:44:05.249Z,7860
2018-04-26T10:45:13.906Z,7880
2018-04-26T10:46:22.544Z,8584
2018-04-26T10:47:31.195Z,7672
2018-04-26T10:48:39.834Z,6824
2018-04-26T10:49:48.483Z,6944
2018-04-26T10:50:57.166Z,7704
2018-04-26T10:52:06.105Z,7736
2018-04-26T10:53:14.879Z,5872
2018-04-26T10:54:24.213Z,4900
2018-04-26T10:55:33.152Z,5284
2018-04-26T10:56:41.798Z,4936
2018-04-26T10:57:50.450Z,3524
2018-04-26T10:58:59.098Z,2532
2018-04-26T11:00:07.810Z,3040
2018-04-26T11:01:16.398Z,3980
2018-04-26T11:02:25.041Z,5876
2018-04-26T11:03:33.699Z,6600
2018-04-26T11:04:42.343Z,8924
2018-04-26T11:05:51.253Z,7772
2018-04-26T11:06:59.906Z,7664
2018-04-26T11:08:08.550Z,6244
2018-04-26T11:09:17.310Z,4036
2018-04-26T11:10:26.224Z,2376
2018-04-26T11:11:35.270Z,1100
2018-04-26T11:12:43.873Z,768
2018-04-26T11:13:52.529Z,996
2018-04-26T11:15:01.179Z,1324
2018-04-26T11:16:09.824Z,1324
2018-04-26T11:17:18.767Z,1256
2018-04-26T11:18:27.756Z,1408
2018-04-26T11:19:36.712Z,1788
2018-04-26T11:20:45.365Z,2436
2018-04-26T11:21:54.003Z,2976
2018-04-26T11:23:02.653Z,3076
2018-04-26T11:24:11.571Z,3452
2018-04-26T11:25:20.207Z,4824
2018-04-26T11:26:28.857Z,6916
2018-04-26T11:27:37.506Z,7208
2018-04-26T11:28:46.144Z,7244
2018-04-26T11:29:54.784Z,6896
2018-04-26T11:31:03.771Z,6224
2018-04-26T11:32:12.805Z,5472
2018-04-26T11:33:21.440Z,4824
2018-04-26T11:34:30.099Z,4320
2018-04-26T11:35:38.741Z,3964
2018-04-26T11:36:47.375Z,3768
2018-04-26T11:37:56.033Z,3616
2018-04-26T11:39:04.681Z,3536
2018-04-26T11:40:13.457Z,3468
2018-04-26T11:41:21.960Z,3444
2018-04-26T11:42:30.608Z,3520
2018-04-26T11:43:39.243Z,3520
2018-04-26T11:44:47.892Z,3432
2018-04-26T11:45:56.791Z,3476
2018-04-26T11:47:05.448Z,3556
2018-04-26T11:48:14.093Z,1844
2018-04-26T11:49:22.730Z,1884
2018-04-26T11:50:31.378Z,1720
2018-04-26T11:51:40.641Z,1476
2018-04-26T11:52:49.278Z,1304
2018-04-26T11:53:57.930Z,1276
2018-04-26T11:55:06.594Z,1300
2018-04-26T11:56:15.245Z,1260
2018-04-26T11:57:24.153Z,1280
2018-04-26T11:58:32.818Z,1400
2018-04-26T11:59:41.715Z,1524
2018-04-26T12:00:50.368Z,1512
2018-04-26T12:01:59.003Z,1532
2018-04-26T12:03:07.647Z,2124
2018-04-26T12:04:16.835Z,2364
2018-04-26T12:05:25.469Z,2436
2018-04-26T12:06:34.118Z,2640
2018-04-26T12:07:43.180Z,3216
2018-04-26T12:08:52.115Z,3216
2018-04-26T12:10:00.867Z,2664
2018-04-26T12:11:10.520Z,2520
2018-04-26T12:12:20.036Z,3420
2018-04-26T12:13:28.829Z,3948
2018-04-26T12:14:37.493Z,4040
2018-04-26T12:15:46.124Z,4080
2018-04-26T12:16:54.779Z,4756
2018-04-26T12:18:03.415Z,5132
2018-04-26T12:19:12.058Z,5024
2018-04-26T12:20:20.714Z,4712
2018-04-26T12:21:29.359Z,4312
2018-04-26T12:22:37.992Z,3412
2018-04-26T12:23:46.650Z,2864
2018-04-26T12:24:55.296Z,2840
2018-04-26T12:26:03.933Z,2836
2018-04-26T12:27:12.580Z,3504
2018-04-26T12:28:21.232Z,5116
2018-04-26T12:29:30.226Z,4724
2018-04-26T12:30:39.133Z,3416
2018-04-26T12:31:47.764Z,4584
2018-04-26T12:32:56.427Z,4752
2018-04-26T12:34:05.077Z,7404
2018-04-26T12:35:13.802Z,8176
2018-04-26T12:36:22.743Z,8488
2018-04-26T12:37:31.559Z,6736
2018-04-26T12:38:40.529Z,6792
2018-04-26T12:39:49.424Z,6512
2018-04-26T12:40:58.592Z,4984
2018-04-26T12:42:07.668Z,3312
2018-04-26T12:43:16.491Z,1856
2018-04-26T12:44:25.327Z,1264
2018-04-26T12:45:34.018Z,1320
2018-04-26T12:46:45.740Z,1636
2018-04-26T12:47:54.761Z,2076
2018-04-26T12:49:03.979Z,2752
2018-04-26T12:50:12.722Z,2888
2018-04-26T12:51:21.357Z,3016
2018-04-26T12:52:30.466Z,2740
2018-04-26T12:53:39.389Z,2324
2018-04-26T12:54:48.855Z,2664
2018-04-26T12:55:57.927Z,4228
2018-04-26T12:57:06.584Z,5816
2018-04-26T12:58:15.316Z,6936
2018-04-26T12:59:23.880Z,5236
2018-04-26T13:00:32.777Z,4500
2018-04-26T13:01:41.431Z,3708
2018-04-26T13:02:50.346Z,3012
2018-04-26T13:03:58.984Z,2952
2018-04-26T13:05:07.631Z,3828
2018-04-26T13:06:16.291Z,3668
2018-04-26T13:07:25.201Z,4792
2018-04-26T13:08:33.835Z,5116
2018-04-26T13:09:42.488Z,6728
2018-04-26T13:10:51.149Z,7100
2018-04-26T13:11:59.772Z,6236
2018-04-26T13:13:08.428Z,6692
2018-04-26T13:14:17.063Z,6028
2018-04-26T13:15:25.721Z,6692
2018-04-26T13:16:34.364Z,6252
2018-04-26T13:17:42.995Z,5452
2018-04-26T13:18:51.655Z,5088
2018-04-26T13:20:00.299Z,4924
2018-04-26T13:21:09.221Z,4616
2018-04-26T13:22:17.847Z,2912
2018-04-26T13:23:26.503Z,4192
2018-04-26T13:24:35.395Z,4420
2018-04-26T13:25:44.045Z,3612
2018-04-26T13:26:52.971Z,4452
2018-04-26T13:28:01.609Z,4924
2018-04-26T13:29:10.248Z,5044
2018-04-26T13:30:18.904Z,4580
2018-04-26T13:31:27.542Z,3344
2018-04-26T13:32:36.176Z,2164
2018-04-26T13:33:45.130Z,3528
2018-04-26T13:34:53.776Z,3396
2018-04-26T13:36:02.409Z,3452
2018-04-26T13:37:11.067Z,2764
2018-04-26T13:38:19.716Z,2252
2018-04-26T13:39:28.356Z,3708
2018-04-26T13:40:37.007Z,2268
2018-04-26T13:41:45.660Z,2808
2018-04-26T13:42:54.305Z,3640
2018-04-26T13:44:02.954Z,3788
2018-04-26T13:45:11.590Z,4676
2018-04-26T13:46:20.298Z,7128
2018-04-26T13:47:28.896Z,6896
2018-04-26T13:48:37.531Z,6140
2018-04-26T13:49:46.191Z,5528
2018-04-26T13:50:54.851Z,5088
2018-04-26T13:52:03.545Z,4656
2018-04-26T13:53:12.133Z,4480
2018-04-26T13:54:20.789Z,4272
2018-04-26T13:55:29.424Z,2880
2018-04-26T13:56:38.070Z,2744
2018-04-26T13:57:46.713Z,2684
2018-04-26T13:58:55.377Z,3008
2018-04-26T14:00:04.030Z,4580
2018-04-26T14:01:12.668Z,4948
2018-04-26T14:02:21.584Z,3644
2018-04-26T14:03:30.241Z,3184
2018-04-26T14:04:38.876Z,2656
2018-04-26T14:05:47.521Z,2292
2018-04-26T14:06:56.180Z,2140
2018-04-26T14:08:04.813Z,2340
2018-04-26T14:09:13.453Z,2732
2018-04-26T14:10:22.394Z,3036
2018-04-26T14:11:31.301Z,3008
2018-04-26T14:12:39.950Z,2900
2018-04-26T14:13:48.589Z,4076
2018-04-26T14:14:57.231Z,4212
2018-04-26T14:16:06.160Z,4140
2018-04-26T14:17:14.797Z,3972
2018-04-26T14:18:23.439Z,3852
2018-04-26T14:19:32.103Z,3664
2018-04-26T14:20:41.015Z,3560
2018-04-26T14:21:49.657Z,3436
2018-04-26T14:22:58.402Z,3320
2018-04-26T14:24:06.953Z,3188
2018-04-26T14:25:15.619Z,3008
2018-04-26T14:26:24.536Z,2852
2018-04-26T14:27:33.173Z,2780
2018-04-26T14:28:41.828Z,2752
2018-04-26T14:29:50.471Z,2720
2018-04-26T14:30:59.108Z,2724
2018-04-26T14:32:07.799Z,2768
2018-04-26T14:33:16.712Z,2752
2018-04-26T14:34:25.372Z,2760
2018-04-26T14:35:34.003Z,2756
2018-04-26T14:36:42.916Z,2748
2018-04-26T14:37:51.553Z,2724
2018-04-26T14:39:00.464Z,2728
2018-04-26T14:40:09.119Z,2700
2018-04-26T14:41:17.758Z,2736
2018-04-26T14:42:26.409Z,2776
2018-04-26T14:43:35.045Z,2792
2018-04-26T14:44:43.696Z,2820
2018-04-26T14:45:52.889Z,2980
2018-04-26T14:47:01.524Z,3204
2018-04-26T14:48:10.437Z,3232
2018-04-26T14:49:19.093Z,3244
2018-04-26T14:50:27.732Z,2992
2018-04-26T14:51:36.637Z,2964
2018-04-26T14:52:45.592Z,3076
2018-04-26T14:53:54.495Z,3244
2018-04-26T14:55:03.140Z,3300
2018-04-26T14:56:12.049Z,3252
2018-04-26T14:57:20.699Z,2052
2018-04-26T14:58:29.627Z,2084
2018-04-26T14:59:38.262Z,2964
2018-04-26T15:00:47.164Z,3120
2018-04-26T15:01:55.821Z,3492
2018-04-26T15:03:04.464Z,3652
2018-04-26T15:04:13.106Z,4656
2018-04-26T15:05:21.807Z,3740
2018-04-26T15:06:30.408Z,3404
2018-04-26T15:07:39.044Z,3172
2018-04-26T15:08:47.699Z,2892
2018-04-26T15:09:56.350Z,2816
2018-04-26T15:11:04.991Z,2420
2018-04-26T15:12:13.634Z,2096
2018-04-26T15:13:22.272Z,2096
2018-04-26T15:14:31.198Z,2296
2018-04-26T15:15:39.839Z,2668
2018-04-26T15:16:48.473Z,3476
2018-04-26T15:17:57.135Z,3892
2018-04-26T15:19:06.052Z,3312
2018-04-26T15:20:14.687Z,3008
2018-04-26T15:21:23.348Z,2724
2018-04-26T15:22:31.994Z,2576
2018-04-26T15:23:40.630Z,2288
2018-04-26T15:24:49.546Z,2988
2018-04-26T15:25:58.741Z,3220
2018-04-26T15:27:07.375Z,3128
2018-04-26T15:28:16.023Z,2660
2018-04-26T15:29:24.682Z,3056
2018-04-26T15:30:33.588Z,2444
2018-04-26T15:31:42.490Z,3360
2018-04-26T15:32:51.147Z,3072
2018-04-26T15:33:59.788Z,2956
2018-04-26T15:35:08.695Z,3044
2018-04-26T15:36:17.350Z,3252
2018-04-26T15:37:26.000Z,2976
2018-04-26T15:38:34.635Z,2848
2018-04-26T15:39:43.559Z,2624
2018-04-26T15:40:52.199Z,2388
2018-04-26T15:42:00.856Z,2252
2018-04-26T15:43:09.501Z,2208